Time;durP1;ratioP1;P1;durP2;ratioP2;P2;SDS_P1;SDS_P2;PMS_P1;PMS_P2;Temp;Humidity;BMP_temperature;BMP_pressure;BME280_temperature;BME280_humidity;BME280_pressure;Samples;Min_cycle;Max_cycle;Signal;HPM_P1;HPM_P2
2022/11/04 00:01:47;;;;;;;2.83;0.60;;;10.90;99.90;;;;;;4939255;29;20039;-81
2022/11/04 00:04:14;;;;;;;1.65;0.50;;;10.80;99.90;;;;;;4955215;29;20047;-81
2022/11/04 00:06:40;;;;;;;1.58;0.55;;;10.80;99.90;;;;;;4938952;29;20094;-80
2022/11/04 00:09:08;;;;;;;2.30;0.60;;;10.80;99.90;;;;;;4939477;29;20104;-80
2022/11/04 00:14:19;;;;;;;4.10;0.60;;;10.80;99.90;;;;;;4938675;29;20481;-80
2022/11/04 00:30:09;;;;;;;2.22;0.70;;;10.70;99.90;;;;;;4926158;29;20404;-80
2022/11/04 00:35:21;;;;;;;4.05;1.05;;;10.70;99.90;;;;;;4954184;29;20116;-80
2022/11/04 00:37:46;;;;;;;2.08;0.98;;;10.70;99.90;;;;;;4937651;29;20395;-80
2022/11/04 00:40:15;;;;;;;3.38;0.82;;;10.80;99.90;;;;;;4921617;29;20059;-78
2022/11/04 00:42:44;;;;;;;3.13;0.90;;;10.80;99.90;;;;;;4952911;29;20476;-78
2022/11/04 00:45:09;;;;;;;2.38;0.98;;;10.80;99.90;;;;;;4938255;29;20484;-79
2022/11/04 00:47:35;;;;;;;1.52;0.70;;;10.80;99.90;;;;;;4953734;29;20089;-79
2022/11/04 00:50:01;;;;;;;3.22;0.77;;;10.80;99.90;;;;;;4938072;29;20484;-80
2022/11/04 00:52:27;;;;;;;2.53;1.00;;;10.80;99.90;;;;;;4958005;29;20043;-79
2022/11/04 00:54:52;;;;;;;2.85;1.15;;;10.80;99.90;;;;;;4925598;29;20057;-79
2022/11/04 00:57:18;;;;;;;2.38;0.80;;;10.80;99.90;;;;;;4924888;29;20047;-80
2022/11/04 00:59:44;;;;;;;2.47;0.73;;;10.70;99.90;;;;;;4941922;29;20047;-79
2022/11/04 01:02:11;;;;;;;3.10;0.80;;;10.80;99.90;;;;;;4941858;29;20058;-78
2022/11/04 01:04:37;;;;;;;3.45;0.93;;;10.80;99.90;;;;;;4941510;29;20584;-79
2022/11/04 01:07:03;;;;;;;2.70;0.98;;;10.80;99.90;;;;;;4936931;29;20035;-78
2022/11/04 01:09:29;;;;;;;3.03;0.90;;;10.70;99.90;;;;;;4957209;29;20396;-79
2022/11/04 01:11:54;;;;;;;3.45;0.98;;;10.80;99.90;;;;;;4955305;29;20050;-79
2022/11/04 01:14:21;;;;;;;6.30;1.10;;;10.80;99.90;;;;;;4942042;29;20055;-77
2022/11/04 01:16:49;;;;;;;3.95;0.90;;;10.80;99.90;;;;;;4941747;29;20047;-80
2022/11/04 01:19:15;;;;;;;5.30;1.00;;;10.80;99.90;;;;;;4957289;29;20086;-78
2022/11/04 01:21:40;;;;;;;4.25;0.90;;;10.80;99.90;;;;;;4940379;29;20073;-78
2022/11/04 01:24:06;;;;;;;8.25;1.10;;;10.80;99.90;;;;;;4957924;29;20043;-78
2022/11/04 01:26:32;;;;;;;3.60;1.10;;;10.80;99.90;;;;;;4926132;29;20496;-79
2022/11/04 01:28:59;;;;;;;7.18;1.10;;;10.80;99.90;;;;;;4941606;29;20039;-78
2022/11/04 01:31:30;;;;;;;3.47;1.00;;;10.80;99.90;;;;;;4941127;29;20402;-79
2022/11/04 01:33:57;;;;;;;4.65;1.20;;;10.80;99.90;;;;;;4939892;29;20039;-79
2022/11/04 01:36:24;;;;;;;4.75;1.60;;;10.90;99.90;;;;;;4939823;29;20045;-78
2022/11/04 01:38:50;;;;;;;5.78;1.95;;;10.80;99.90;;;;;;4940592;29;20062;-79
2022/11/04 01:41:19;;;;;;;3.78;1.80;;;10.80;99.90;;;;;;4939277;29;20420;-78
2022/11/04 01:43:51;;;;;;;2.20;1.38;;;10.80;99.90;;;;;;4940329;29;20113;-78
2022/11/04 01:46:28;;;;;;;5.32;2.45;;;10.80;99.90;;;;;;4950619;29;20043;-78
2022/11/04 01:49:02;;;;;;;7.18;2.35;;;10.80;99.90;;;;;;4939967;29;20051;-80
2022/11/04 01:51:32;;;;;;;7.75;2.42;;;10.80;99.90;;;;;;4940168;29;20043;-82
2022/11/04 01:53:58;;;;;;;11.55;3.20;;;10.80;99.90;;;;;;4957257;29;20130;-82
2022/11/04 01:56:25;;;;;;;8.55;2.92;;;10.80;99.90;;;;;;4920358;29;20130;-84
2022/11/04 01:58:53;;;;;;;9.77;2.83;;;10.80;99.90;;;;;;4914459;29;20495;-81
2022/11/04 02:01:19;;;;;;;13.40;3.20;;;10.80;99.90;;;;;;4927986;29;20050;-82
2022/11/04 02:03:48;;;;;;;12.15;2.83;;;10.80;99.90;;;;;;4938746;29;20039;-81
2022/11/04 02:06:15;;;;;;;4.25;1.65;;;10.80;99.90;;;;;;4940609;29;20050;-82
2022/11/04 02:08:42;;;;;;;7.22;2.00;;;10.70;99.90;;;;;;4940391;29;20043;-81
2022/11/04 02:11:07;;;;;;;6.82;1.65;;;10.70;99.90;;;;;;4939790;29;20134;-81
2022/11/04 02:13:35;;;;;;;7.60;2.97;;;10.70;99.90;;;;;;4939655;29;20126;-81
2022/11/04 02:16:31;;;;;;;6.72;2.78;;;10.70;99.90;;;;;;4938866;29;20123;-81
2022/11/04 02:19:30;;;;;;;7.05;2.38;;;10.70;99.90;;;;;;4937244;29;20039;-81
2022/11/04 02:22:16;;;;;;;4.38;2.20;;;10.70;99.90;;;;;;4939556;29;20455;-80
2022/11/04 02:24:45;;;;;;;3.55;1.83;;;10.70;99.90;;;;;;4920404;29;20048;-80
2022/11/04 02:27:29;;;;;;;4.47;1.73;;;10.60;99.90;;;;;;4929601;29;20046;-80
2022/11/04 02:30:19;;;;;;;3.05;1.08;;;10.60;99.90;;;;;;4939065;29;20043;-79
2022/11/04 02:32:56;;;;;;;2.55;1.20;;;10.70;99.90;;;;;;4944251;29;20059;-79
2022/11/04 02:35:48;;;;;;;4.97;1.20;;;10.60;99.90;;;;;;4931167;29;20043;-78
2022/11/04 02:38:48;;;;;;;6.35;1.20;;;10.60;99.90;;;;;;4936731;29;20039;-78
2022/11/04 02:41:39;;;;;;;7.18;1.17;;;10.60;99.90;;;;;;4938668;29;20051;-78
2022/11/04 02:44:19;;;;;;;3.03;1.13;;;10.50;99.90;;;;;;4939017;29;20035;-78
2022/11/04 02:47:03;;;;;;;1.95;0.80;;;10.50;99.90;;;;;;4940139;29;20047;-78
2022/11/04 02:49:50;;;;;;;4.00;1.20;;;10.50;99.90;;;;;;4948236;28;20392;-77
2022/11/04 02:52:21;;;;;;;2.20;0.90;;;10.50;99.90;;;;;;4938960;29;20492;-78
2022/11/04 02:55:05;;;;;;;2.05;0.90;;;10.40;99.90;;;;;;4939093;29;20055;-80
2022/11/04 02:57:34;;;;;;;1.40;0.75;;;10.40;99.90;;;;;;4955400;29;20039;-81
2022/11/04 03:00:05;;;;;;;1.80;0.60;;;10.50;99.90;;;;;;4939236;29;20432;-81
2022/11/04 03:02:44;;;;;;;2.15;0.90;;;10.30;99.90;;;;;;4938867;29;20101;-81
2022/11/04 03:05:15;;;;;;;3.03;0.90;;;10.30;99.90;;;;;;4936173;29;20043;-81
2022/11/04 03:07:42;;;;;;;3.15;1.00;;;10.30;99.90;;;;;;4954836;29;20118;-81
2022/11/04 03:10:32;;;;;;;2.65;1.30;;;10.40;99.90;;;;;;4923477;29;20081;-82
2022/11/04 03:13:12;;;;;;;3.55;0.70;;;10.30;99.90;;;;;;4946749;28;20094;-81
2022/11/04 03:15:43;;;;;;;2.22;0.80;;;10.10;99.90;;;;;;4938781;29;20047;-80
2022/11/04 03:18:17;;;;;;;3.53;0.40;;;10.10;99.90;;;;;;4955007;29;20047;-81
2022/11/04 03:20:45;;;;;;;3.75;0.65;;;10.20;99.90;;;;;;4924592;29;20492;-82
2022/11/04 03:23:11;;;;;;;1.65;0.60;;;10.10;99.90;;;;;;4937462;29;20039;-81
2022/11/04 03:25:42;;;;;;;1.60;0.55;;;10.10;99.90;;;;;;4906898;29;20031;-81
2022/11/04 03:28:18;;;;;;;0.90;0.60;;;10.00;99.90;;;;;;4938069;29;20170;-80
2022/11/04 03:30:47;;;;;;;1.77;0.60;;;10.00;99.90;;;;;;4950121;28;20122;-81
2022/11/04 03:33:42;;;;;;;3.92;0.90;;;10.00;99.90;;;;;;4954338;29;20106;-80
2022/11/04 03:36:08;;;;;;;1.52;0.90;;;10.00;99.90;;;;;;4944790;29;20102;-81
2022/11/04 03:38:37;;;;;;;2.00;0.77;;;10.00;99.90;;;;;;4914088;29;20042;-81
2022/11/04 03:41:08;;;;;;;2.60;0.80;;;10.00;99.90;;;;;;4915781;29;20039;-81
2022/11/04 03:43:36;;;;;;;4.57;1.10;;;10.10;99.90;;;;;;4946400;29;20041;-80
2022/11/04 03:46:02;;;;;;;5.40;1.38;;;10.00;99.90;;;;;;4938451;29;20035;-80
2022/11/04 03:48:28;;;;;;;4.68;0.98;;;10.20;99.90;;;;;;4938081;29;20043;-81
2022/11/04 03:50:54;;;;;;;2.65;0.85;;;10.10;99.90;;;;;;4906312;29;20043;-80
2022/11/04 03:53:22;;;;;;;3.00;0.80;;;10.00;99.90;;;;;;4921238;29;20385;-79
2022/11/04 03:56:10;;;;;;;1.52;0.65;;;10.00;99.90;;;;;;4935866;29;20049;-80
2022/11/04 03:59:03;;;;;;;4.10;0.98;;;10.00;99.90;;;;;;4954014;29;20043;-79
2022/11/04 04:01:59;;;;;;;2.50;0.80;;;10.00;99.90;;;;;;4953288;29;20039;-79
2022/11/04 04:04:29;;;;;;;3.37;0.97;;;9.90;99.90;;;;;;4945552;29;20369;-79
2022/11/04 04:07:07;;;;;;;3.92;0.60;;;10.10;99.90;;;;;;4953605;29;20071;-79
2022/11/04 04:09:44;;;;;;;4.85;1.00;;;9.80;99.90;;;;;;4936205;29;20126;-78
2022/11/04 04:12:14;;;;;;;3.97;0.73;;;9.80;99.90;;;;;;4952253;29;20555;-78
2022/11/04 04:14:53;;;;;;;3.05;1.00;;;9.80;99.90;;;;;;4937028;29;20047;-78
2022/11/04 04:17:49;;;;;;;2.55;0.70;;;10.40;99.90;;;;;;4941069;28;20039;-78
2022/11/04 04:20:19;;;;;;;2.70;0.75;;;9.70;99.90;;;;;;4936531;29;20133;-77
2022/11/04 04:23:00;;;;;;;2.47;0.88;;;9.80;99.90;;;;;;4952160;29;20069;-78
2022/11/04 04:28:15;;;;;;;2.45;0.70;;;9.70;99.90;;;;;;4944413;29;20039;-78
2022/11/04 04:30:42;;;;;;;3.20;1.10;;;9.70;99.90;;;;;;4934835;29;20040;-78
2022/11/04 04:33:12;;;;;;;2.55;0.90;;;9.70;99.90;;;;;;4953063;29;20428;-78
2022/11/04 04:35:47;;;;;;;2.03;0.85;;;9.90;99.90;;;;;;4953730;29;20054;-78
2022/11/04 04:47:18;;;;;;;2.15;0.60;;;9.80;99.90;;;;;;4939493;29;20047;-78
2022/11/04 04:49:59;;;;;;;1.52;0.70;;;9.80;99.90;;;;;;4937633;29;20055;-78
2022/11/04 04:52:33;;;;;;;3.53;0.80;;;9.80;99.90;;;;;;4942732;29;20433;-78
2022/11/04 04:54:59;;;;;;;5.50;0.70;;;9.90;99.90;;;;;;4936916;29;20086;-78
2022/11/04 04:57:25;;;;;;;2.50;1.10;;;9.80;99.90;;;;;;4920593;29;20035;-78
2022/11/04 04:59:51;;;;;;;2.05;0.98;;;9.80;99.90;;;;;;4937365;29;20044;-78
2022/11/04 05:02:16;;;;;;;7.40;1.20;;;9.80;99.90;;;;;;4920350;29;20051;-78
2022/11/04 05:04:42;;;;;;;4.63;1.42;;;10.00;99.90;;;;;;4921165;29;20396;-78
2022/11/04 05:07:08;;;;;;;2.70;1.15;;;9.80;99.90;;;;;;4936368;29;20158;-78
2022/11/04 05:09:34;;;;;;;4.22;1.70;;;9.80;99.90;;;;;;4921340;29;20082;-78
2022/11/04 05:12:00;;;;;;;3.17;1.23;;;9.80;99.90;;;;;;4936004;29;20571;-78
2022/11/04 05:14:26;;;;;;;3.78;1.40;;;9.80;99.90;;;;;;4921279;29;20122;-78
2022/11/04 05:16:52;;;;;;;3.40;1.40;;;9.70;99.90;;;;;;4902352;29;20035;-78
2022/11/04 05:19:17;;;;;;;4.15;1.30;;;9.70;99.90;;;;;;4910377;29;20039;-78
2022/11/04 05:21:43;;;;;;;3.00;1.35;;;9.90;99.90;;;;;;4920800;29;20090;-78
2022/11/04 05:24:09;;;;;;;5.35;1.58;;;9.70;99.90;;;;;;4921688;29;20043;-78
2022/11/04 05:26:35;;;;;;;5.00;1.50;;;9.70;99.90;;;;;;4952620;29;20047;-78
2022/11/04 05:29:01;;;;;;;5.32;1.60;;;9.70;99.90;;;;;;4952237;29;20082;-78
2022/11/04 05:31:27;;;;;;;3.42;1.20;;;9.80;99.90;;;;;;4919577;29;20043;-78
2022/11/04 05:33:53;;;;;;;4.93;1.38;;;9.80;99.90;;;;;;4919914;29;20046;-78
2022/11/04 05:36:18;;;;;;;3.55;1.33;;;9.70;99.90;;;;;;4937232;29;20043;-78
2022/11/04 05:38:50;;;;;;;2.67;1.42;;;9.70;99.90;;;;;;4907697;29;20106;-78
2022/11/04 05:41:24;;;;;;;5.43;1.30;;;9.70;99.90;;;;;;4939615;29;20110;-78
2022/11/04 05:43:55;;;;;;;6.68;0.75;;;9.70;99.90;;;;;;4939271;29;20047;-78
2022/11/04 05:46:21;;;;;;;2.17;0.70;;;9.60;99.90;;;;;;4936236;29;20050;-78
2022/11/04 05:48:47;;;;;;;1.00;0.50;;;9.50;99.90;;;;;;4954883;29;20365;-78
2022/11/04 05:51:14;;;;;;;1.42;0.57;;;9.50;99.90;;;;;;4937879;29;20054;-78
2022/11/04 05:53:40;;;;;;;1.33;0.50;;;9.50;99.90;;;;;;4923733;29;20051;-78
2022/11/04 05:56:07;;;;;;;0.98;0.52;;;9.40;99.90;;;;;;4923490;29;20503;-78
2022/11/04 05:58:32;;;;;;;1.75;0.57;;;9.40;99.90;;;;;;4923275;29;20047;-78
2022/11/04 06:01:11;;;;;;;0.63;0.30;;;9.30;99.90;;;;;;4924157;29;20062;-78
2022/11/04 06:03:37;;;;;;;3.40;0.40;;;9.30;99.90;;;;;;4955365;29;20093;-79
2022/11/04 06:06:03;;;;;;;1.67;0.50;;;9.20;99.90;;;;;;4955912;29;20118;-78
2022/11/04 06:08:30;;;;;;;1.85;0.50;;;9.20;99.90;;;;;;4940495;29;20055;-78
2022/11/04 06:10:56;;;;;;;1.25;0.40;;;9.80;99.90;;;;;;4918707;29;20066;-78
2022/11/04 06:13:22;;;;;;;1.77;0.50;;;9.10;99.90;;;;;;4932695;28;20047;-78
2022/11/04 06:15:47;;;;;;;0.82;0.68;;;9.10;99.90;;;;;;4908020;29;20111;-78
2022/11/04 06:18:13;;;;;;;1.55;0.52;;;9.00;99.90;;;;;;4939756;29;20047;-78
2022/11/04 06:20:39;;;;;;;0.75;0.57;;;9.00;99.90;;;;;;4922682;29;20039;-77
2022/11/04 06:23:04;;;;;;;0.75;0.52;;;9.70;99.90;;;;;;4923193;29;20035;-78
2022/11/04 06:25:30;;;;;;;2.38;0.75;;;8.90;99.90;;;;;;4933884;29;20035;-78
2022/11/04 06:27:56;;;;;;;1.73;0.70;;;8.90;99.90;;;;;;4953876;29;20464;-78
2022/11/04 06:30:22;;;;;;;1.38;0.70;;;8.90;99.90;;;;;;4923518;29;20035;-78
2022/11/04 06:32:48;;;;;;;2.28;0.90;;;8.90;99.90;;;;;;4904467;29;20082;-78
2022/11/04 06:35:13;;;;;;;3.72;1.30;;;9.00;99.90;;;;;;4935930;29;20189;-78
2022/11/04 06:37:39;;;;;;;3.97;1.02;;;8.90;99.90;;;;;;4908705;29;20035;-77
2022/11/04 06:40:06;;;;;;;3.00;1.15;;;8.90;99.90;;;;;;4939299;29;20531;-78
2022/11/04 06:42:31;;;;;;;3.08;1.35;;;8.90;99.90;;;;;;4923433;29;20078;-78
2022/11/04 06:44:57;;;;;;;2.30;1.65;;;8.90;99.90;;;;;;4939636;29;20074;-78
2022/11/04 06:47:23;;;;;;;4.65;1.73;;;9.20;99.90;;;;;;4922750;28;20044;-78
2022/11/04 06:49:48;;;;;;;4.32;1.98;;;8.90;99.90;;;;;;4937278;29;20036;-78
2022/11/04 06:52:14;;;;;;;4.65;2.28;;;8.90;99.90;;;;;;4936519;29;20042;-79
2022/11/04 06:54:40;;;;;;;5.55;2.58;;;8.90;99.90;;;;;;4907646;29;20054;-78
2022/11/04 06:57:05;;;;;;;6.45;3.08;;;9.40;99.90;;;;;;4922718;29;20039;-78
2022/11/04 06:59:31;;;;;;;6.35;3.33;;;8.90;99.90;;;;;;4904867;29;20046;-78
2022/11/04 07:01:57;;;;;;;5.95;3.05;;;8.90;99.90;;;;;;4906815;29;20126;-81
2022/11/04 07:04:23;;;;;;;8.95;3.92;;;9.20;99.90;;;;;;4905087;29;20079;-80
2022/11/04 07:06:49;;;;;;;7.30;3.42;;;8.90;99.90;;;;;;4936102;29;20079;-79
2022/11/04 07:09:15;;;;;;;9.20;5.13;;;9.00;99.90;;;;;;4922097;29;20494;-80
2022/11/04 07:11:42;;;;;;;7.75;5.22;;;9.30;99.90;;;;;;4937334;29;20246;-79
2022/11/04 07:14:08;;;;;;;8.25;5.72;;;8.90;99.90;;;;;;4922632;29;20090;-80
2022/11/04 07:16:34;;;;;;;10.40;6.68;;;9.00;99.90;;;;;;4954721;29;20051;-79
2022/11/04 07:19:00;;;;;;;10.48;6.47;;;8.90;99.90;;;;;;4922232;29;20076;-79
2022/11/04 07:21:26;;;;;;;10.93;7.00;;;9.00;99.90;;;;;;4922872;29;20044;-79
2022/11/04 07:23:52;;;;;;;11.35;7.05;;;9.00;99.90;;;;;;4922637;29;20586;-78
2022/11/04 07:26:18;;;;;;;13.45;7.55;;;9.10;99.90;;;;;;4922131;29;20038;-78
2022/11/04 07:28:44;;;;;;;11.68;6.88;;;9.10;99.90;;;;;;4953977;29;20072;-79
2022/11/04 07:31:11;;;;;;;15.93;6.82;;;9.10;99.90;;;;;;4921840;29;20420;-78
2022/11/04 07:33:37;;;;;;;12.45;7.22;;;9.10;99.90;;;;;;4954631;29;20043;-78
2022/11/04 07:36:04;;;;;;;10.45;6.85;;;9.10;99.90;;;;;;4938681;29;20039;-79
2022/11/04 07:38:30;;;;;;;14.57;8.10;;;9.10;99.90;;;;;;4906804;29;20492;-79
2022/11/04 07:41:01;;;;;;;15.10;7.93;;;9.10;99.90;;;;;;4953621;29;20118;-79
2022/11/04 07:43:27;;;;;;;13.73;8.00;;;9.20;99.90;;;;;;4924395;29;20375;-80
2022/11/04 07:46:05;;;;;;;15.20;8.60;;;9.20;99.90;;;;;;4939588;29;20043;-79
2022/11/04 07:48:31;;;;;;;15.55;9.45;;;9.20;99.90;;;;;;4938169;29;20035;-78
2022/11/04 07:50:58;;;;;;;13.63;8.93;;;9.30;99.90;;;;;;4937528;29;20178;-79
2022/11/04 07:53:28;;;;;;;15.52;9.82;;;10.00;99.90;;;;;;4923613;29;20094;-79
2022/11/04 07:55:54;;;;;;;17.00;11.00;;;9.30;99.90;;;;;;4922849;29;20047;-79
2022/11/04 07:58:20;;;;;;;17.55;11.38;;;9.40;99.90;;;;;;4954380;29;20094;-79
2022/11/04 08:00:46;;;;;;;18.90;11.10;;;9.40;99.90;;;;;;4920829;29;20510;-80
2022/11/04 08:03:11;;;;;;;18.88;11.95;;;9.40;99.90;;;;;;4923009;29;20065;-80
2022/11/04 08:05:37;;;;;;;20.92;11.80;;;9.50;99.90;;;;;;4954527;29;20043;-79
2022/11/04 08:08:03;;;;;;;21.77;13.10;;;9.40;99.90;;;;;;4938804;29;20492;-80
2022/11/04 08:10:29;;;;;;;23.77;12.63;;;9.50;99.90;;;;;;4938249;29;20050;-79
2022/11/04 08:12:55;;;;;;;21.85;13.95;;;9.40;99.90;;;;;;4922601;29;20098;-79
2022/11/04 08:15:21;;;;;;;29.05;13.45;;;9.40;99.90;;;;;;4931602;29;20047;-78
2022/11/04 08:17:46;;;;;;;23.73;13.38;;;9.50;99.90;;;;;;4931256;29;20034;-80
2022/11/04 08:20:12;;;;;;;22.23;13.75;;;9.40;99.90;;;;;;4945657;29;20059;-77
2022/11/04 08:22:38;;;;;;;23.85;13.93;;;9.40;99.90;;;;;;4921730;29;20040;-79
2022/11/04 08:25:05;;;;;;;25.25;14.20;;;9.30;99.90;;;;;;4921527;29;20110;-78
2022/11/04 08:27:31;;;;;;;27.88;15.10;;;9.30;99.90;;;;;;4938650;29;20035;-79
2022/11/04 08:29:57;;;;;;;33.53;15.45;;;9.30;99.90;;;;;;4938452;29;20042;-79
2022/11/04 08:32:22;;;;;;;27.50;15.38;;;10.20;99.90;;;;;;4902129;29;20043;-79
2022/11/04 08:34:48;;;;;;;32.10;15.85;;;9.30;99.90;;;;;;4920099;29;20036;-79
2022/11/04 08:37:15;;;;;;;30.25;17.08;;;9.40;99.90;;;;;;4919394;29;20500;-78
2022/11/04 08:39:41;;;;;;;34.65;18.10;;;9.50;99.90;;;;;;4924580;29;20055;-78
2022/11/04 08:42:07;;;;;;;30.80;17.38;;;9.40;99.90;;;;;;4922727;29;20039;-79
2022/11/04 08:44:33;;;;;;;31.65;18.30;;;9.40;99.90;;;;;;4906988;29;20079;-79
2022/11/04 08:46:59;;;;;;;33.88;18.55;;;9.60;99.90;;;;;;4937160;29;20071;-79
2022/11/04 08:49:25;;;;;;;34.42;18.20;;;9.80;99.90;;;;;;4937286;29;20579;-79
2022/11/04 08:51:59;;;;;;;33.70;18.75;;;9.60;99.90;;;;;;4905569;29;20130;-78
2022/11/04 08:54:26;;;;;;;35.90;19.95;;;9.60;99.90;;;;;;4923512;29;20131;-79
2022/11/04 08:56:52;;;;;;;35.55;20.05;;;9.70;99.90;;;;;;4953539;29;20114;-78
2022/11/04 08:59:18;;;;;;;35.95;20.40;;;9.60;99.90;;;;;;4937900;29;20131;-78
2022/11/04 09:01:44;;;;;;;36.80;20.95;;;9.80;99.90;;;;;;4947447;29;20224;-78
2022/11/04 09:04:11;;;;;;;37.70;21.70;;;9.80;99.90;;;;;;4920895;29;20031;-78
2022/11/04 09:06:39;;;;;;;37.72;20.77;;;9.90;99.90;;;;;;4946122;29;20075;-78
2022/11/04 09:09:07;;;;;;;38.80;23.55;;;10.10;99.90;;;;;;4933276;29;20040;-78
2022/11/04 09:11:37;;;;;;;41.47;22.65;;;10.00;99.90;;;;;;4952038;28;20094;-78
2022/11/04 09:14:03;;;;;;;37.92;22.50;;;10.00;99.90;;;;;;4941732;29;20054;-79
2022/11/04 09:16:31;;;;;;;40.05;23.75;;;10.10;99.90;;;;;;4953814;29;20062;-79
2022/11/04 09:18:57;;;;;;;36.22;21.98;;;10.30;99.90;;;;;;4940677;29;20043;-79
2022/11/04 09:21:24;;;;;;;38.22;21.77;;;10.60;99.90;;;;;;4925660;29;20529;-79
2022/11/04 09:23:50;;;;;;;36.13;22.92;;;10.80;99.90;;;;;;4940356;29;20043;-78
2022/11/04 09:26:16;;;;;;;39.45;23.55;;;10.90;99.90;;;;;;4925201;29;20090;-79
2022/11/04 09:28:42;;;;;;;33.75;22.75;;;11.30;99.90;;;;;;4935342;29;20118;-79
2022/11/04 09:31:11;;;;;;;31.60;20.80;;;11.60;99.90;;;;;;4940331;29;20061;-79
2022/11/04 09:33:37;;;;;;;33.63;22.23;;;11.80;99.90;;;;;;4939928;29;20047;-79
2022/11/04 09:36:03;;;;;;;34.53;20.98;;;11.80;99.90;;;;;;4935662;29;20043;-79
2022/11/04 09:38:29;;;;;;;36.15;21.30;;;11.70;99.90;;;;;;4938343;29;20488;-79
2022/11/04 09:40:57;;;;;;;37.92;21.55;;;11.60;99.90;;;;;;4933847;29;20097;-79
2022/11/04 09:43:29;;;;;;;32.90;21.60;;;11.70;99.90;;;;;;4937481;29;20066;-79
2022/11/04 09:45:56;;;;;;;35.13;22.48;;;11.40;99.90;;;;;;4940614;29;20039;-79
2022/11/04 09:48:38;;;;;;;29.55;19.75;;;11.30;99.90;;;;;;4913943;29;20098;-80
2022/11/04 09:51:05;;;;;;;40.65;23.45;;;11.20;99.90;;;;;;4923148;29;20043;-80
2022/11/04 09:53:46;;;;;;;34.58;22.70;;;11.20;99.90;;;;;;4929409;29;20043;-80
2022/11/04 09:56:22;;;;;;;34.35;22.58;;;11.40;99.90;;;;;;4936109;29;20039;-80
2022/11/04 09:58:50;;;;;;;33.83;23.33;;;11.70;99.90;;;;;;4947099;28;20047;-80
2022/11/04 10:01:18;;;;;;;36.55;24.98;;;11.90;99.90;;;;;;4920757;29;20554;-79
2022/11/04 10:04:02;;;;;;;35.40;24.92;;;11.90;99.90;;;;;;4938968;29;20416;-81
2022/11/04 10:07:10;;;;;;;36.90;24.35;;;11.90;99.90;;;;;;4954112;29;20055;-81
2022/11/04 10:09:56;;;;;;;30.88;23.00;;;11.90;99.90;;;;;;4938096;29;20077;-81
2022/11/04 10:13:16;;;;;;;32.35;23.83;;;11.90;99.90;;;;;;4935756;29;20071;-82
2022/11/04 10:15:58;;;;;;;35.60;22.73;;;11.90;99.90;;;;;;4896245;29;20052;-81
2022/11/04 10:18:30;;;;;;;40.22;23.23;;;11.90;99.90;;;;;;4952228;29;20046;-80
2022/11/04 10:21:14;;;;;;;36.10;24.98;;;11.80;99.90;;;;;;4935435;29;20047;-79
2022/11/04 10:23:44;;;;;;;37.67;25.30;;;11.80;99.90;;;;;;4950923;28;20040;-79
2022/11/04 10:26:59;;;;;;;36.17;25.02;;;11.90;99.90;;;;;;4941967;29;20039;-79
2022/11/04 10:29:41;;;;;;;37.20;23.42;;;11.70;99.90;;;;;;4941193;29;20488;-79
2022/11/04 10:32:46;;;;;;;33.10;23.38;;;11.60;99.90;;;;;;4936842;29;20145;-78
2022/11/04 10:35:33;;;;;;;33.75;22.98;;;11.60;99.90;;;;;;4915774;29;20492;-78
2022/11/04 10:38:20;;;;;;;35.50;22.42;;;11.60;99.90;;;;;;4938629;29;20110;-78
2022/11/04 10:40:50;;;;;;;;;;;11.70;99.90;;;;;;4936940;29;20043;-79
2022/11/04 10:43:31;;;;;;;34.42;22.00;;;11.60;99.90;;;;;;4954900;29;19925;-80
2022/11/04 10:46:15;;;;;;;36.17;23.10;;;11.60;99.90;;;;;;4952735;29;20046;-81
2022/11/04 10:48:59;;;;;;;31.52;21.67;;;11.60;99.90;;;;;;4947197;29;20047;-85
2022/11/04 10:51:25;;;;;;;30.30;21.98;;;11.60;99.90;;;;;;4923848;29;20403;-82
2022/11/04 10:53:56;;;;;;;30.85;21.15;;;11.60;99.90;;;;;;4907672;29;20106;-82
2022/11/04 10:56:33;;;;;;;24.67;17.75;;;11.60;99.90;;;;;;4939271;29;20043;-84
2022/11/04 10:59:29;;;;;;;22.98;16.25;;;11.60;99.90;;;;;;4949315;29;20055;-83
2022/11/04 11:02:00;;;;;;;17.58;13.40;;;11.60;99.90;;;;;;4952914;28;20045;-80
2022/11/04 11:04:32;;;;;;;24.42;14.48;;;11.70;99.90;;;;;;4953782;29;20043;-80
2022/11/04 11:07:03;;;;;;;20.98;12.90;;;11.80;99.90;;;;;;4937616;29;20480;-80
2022/11/04 11:09:32;;;;;;;19.98;13.48;;;11.80;99.90;;;;;;4953698;29;20051;-81
2022/11/04 11:12:05;;;;;;;22.00;13.48;;;11.90;99.90;;;;;;4935613;29;20046;-81
2022/11/04 11:14:36;;;;;;;22.23;14.90;;;11.90;99.90;;;;;;4934900;29;20051;-80
2022/11/04 11:17:17;;;;;;;26.00;15.10;;;12.00;99.90;;;;;;4932634;29;20039;-82
2022/11/04 11:19:57;;;;;;;23.92;15.32;;;12.10;99.90;;;;;;4936121;29;20043;-80
2022/11/04 11:22:30;;;;;;;20.52;15.13;;;12.20;99.90;;;;;;4953758;29;20050;-80
2022/11/04 11:25:21;;;;;;;19.92;13.30;;;12.50;99.90;;;;;;4938164;28;20134;-80
2022/11/04 11:28:11;;;;;;;17.27;13.07;;;12.90;99.90;;;;;;4935746;29;20487;-81
2022/11/04 11:30:43;;;;;;;22.90;13.13;;;13.30;99.90;;;;;;4948808;29;20073;-80
2022/11/04 11:33:29;;;;;;;16.90;12.90;;;13.50;99.90;;;;;;4923787;29;20126;-80
2022/11/04 11:36:01;;;;;;;;;;;13.60;99.90;;;;;;4930121;29;20118;-81
2022/11/04 11:38:29;;;;;;;16.83;12.63;;;13.70;99.90;;;;;;4937497;29;19918;-81
2022/11/04 11:41:08;;;;;;;19.35;12.13;;;13.70;99.90;;;;;;4936111;29;20061;-81
2022/11/04 11:43:36;;;;;;;18.08;11.00;;;13.70;99.90;;;;;;4954553;29;20138;-80
2022/11/04 11:46:02;;;;;;;9.52;6.40;;;13.70;99.90;;;;;;4951586;29;20183;-80
2022/11/04 11:48:41;;;;;;;12.40;8.98;;;13.60;99.90;;;;;;4949946;29;20043;-81
2022/11/04 11:51:16;;;;;;;8.52;4.15;;;13.50;99.90;;;;;;4934539;29;20158;-82
2022/11/04 11:54:12;;;;;;;13.20;4.57;;;13.30;99.90;;;;;;4971062;28;20052;-82
2022/11/04 11:56:42;;;;;;;9.77;5.18;;;13.30;99.90;;;;;;4953713;29;20046;-81
2022/11/04 11:59:22;;;;;;;6.72;3.88;;;13.20;99.90;;;;;;4937181;29;20095;-81
2022/11/04 12:01:57;;;;;;;7.40;4.18;;;13.10;99.90;;;;;;4937735;29;20039;-80
2022/11/04 12:04:23;;;;;;;9.97;5.67;;;13.00;99.90;;;;;;4927172;29;20044;-81
2022/11/04 12:07:03;;;;;;;12.88;5.43;;;12.90;99.90;;;;;;4939462;29;20171;-81
2022/11/04 12:09:51;;;;;;;13.77;5.28;;;12.90;99.90;;;;;;4934289;29;20053;-81
2022/11/04 12:12:43;;;;;;;7.15;4.30;;;12.80;99.90;;;;;;4921491;29;20191;-80
2022/11/04 12:15:33;;;;;;;8.98;4.55;;;12.80;99.90;;;;;;4933350;29;20047;-82
2022/11/04 12:18:27;;;;;;;10.57;4.47;;;12.80;99.90;;;;;;4937858;29;20062;-81
2022/11/04 12:21:20;;;;;;;11.15;4.78;;;12.70;99.90;;;;;;4938807;29;20132;-82
2022/11/04 12:24:00;;;;;;;9.38;4.32;;;12.60;99.90;;;;;;4938814;29;20039;-81
2022/11/04 12:27:12;;;;;;;8.63;3.25;;;12.50;99.90;;;;;;4938481;29;20074;-79
2022/11/04 12:30:06;;;;;;;9.50;3.35;;;12.40;99.90;;;;;;4934994;29;20047;-80
2022/11/04 12:32:38;;;;;;;9.00;3.00;;;12.40;99.90;;;;;;4939035;29;20468;-81
2022/11/04 12:35:28;;;;;;;9.68;3.10;;;12.40;99.90;;;;;;4940011;29;20039;-81
2022/11/04 12:38:21;;;;;;;7.95;2.83;;;12.50;99.90;;;;;;4930727;29;20042;-82
2022/11/04 12:41:17;;;;;;;6.53;2.50;;;12.50;99.90;;;;;;4933041;29;20134;-80
2022/11/04 12:43:54;;;;;;;11.60;2.63;;;12.40;99.90;;;;;;4970983;28;20050;-81
2022/11/04 12:46:20;;;;;;;6.65;2.28;;;12.40;99.90;;;;;;4960885;29;20066;-81
2022/11/04 12:48:58;;;;;;;10.60;2.53;;;12.40;99.90;;;;;;4960376;28;20455;-81
2022/11/04 12:51:49;;;;;;;5.10;2.55;;;12.40;99.90;;;;;;4940394;29;20050;-81
2022/11/04 12:54:24;;;;;;;7.60;2.28;;;12.40;99.90;;;;;;4910772;29;20408;-83
2022/11/04 12:57:07;;;;;;;5.90;2.35;;;12.40;99.90;;;;;;4938730;29;20054;-82
2022/11/04 12:59:45;;;;;;;6.68;2.30;;;12.50;99.90;;;;;;4943922;29;20504;-81
2022/11/04 13:02:22;;;;;;;7.55;2.70;;;12.50;99.90;;;;;;4940026;29;20043;-81
2022/11/04 13:04:59;;;;;;;7.88;1.73;;;12.50;99.90;;;;;;4940651;29;20131;-81
2022/11/04 13:07:34;;;;;;;5.75;1.67;;;12.50;99.90;;;;;;4939825;28;20047;-81
2022/11/04 13:10:10;;;;;;;7.00;1.58;;;12.60;99.90;;;;;;4937719;29;20452;-81
2022/11/04 13:12:40;;;;;;;9.43;1.83;;;12.50;99.90;;;;;;4955284;29;20101;-82
2022/11/04 13:15:19;;;;;;;6.93;1.55;;;12.50;99.90;;;;;;4941120;29;20134;-81
2022/11/04 13:17:48;;;;;;;10.45;2.10;;;12.50;99.90;;;;;;4931859;29;20050;-81
2022/11/04 13:20:42;;;;;;;7.00;1.48;;;12.50;99.90;;;;;;4924875;29;20513;-82
2022/11/04 13:23:15;;;;;;;7.63;1.65;;;12.50;99.90;;;;;;4937699;29;20049;-81
2022/11/04 13:25:45;;;;;;;6.10;1.80;;;12.90;99.90;;;;;;4939679;29;20046;-81
2022/11/04 13:28:20;;;;;;;7.30;1.67;;;12.50;99.90;;;;;;4954775;29;20360;-81
2022/11/04 13:30:55;;;;;;;8.75;1.42;;;12.50;99.90;;;;;;4943131;29;20044;-82
2022/11/04 13:33:24;;;;;;;9.63;1.80;;;12.40;99.90;;;;;;4935233;29;20102;-81
2022/11/04 13:36:23;;;;;;;6.13;1.58;;;12.40;99.90;;;;;;4925393;29;20400;-82
2022/11/04 13:38:59;;;;;;;4.72;1.25;;;12.40;99.90;;;;;;4952799;28;20040;-82
2022/11/04 13:41:54;;;;;;;;;;;12.40;99.90;;;;;;4936340;29;20070;-81
2022/11/04 13:44:26;;;;;;;7.50;1.33;;;12.40;99.90;;;;;;4877953;29;19919;-81